sensor_id;sensor_type;location;lat;lon;timestamp;P1;durP1;ratioP1;P2;durP2;ratioP2
23718;SDS011;43322;52.230;5.702;2024-03-08T00:01:36;44.65;;;24.73;;
23718;SDS011;43322;52.230;5.702;2024-03-08T00:04:03;45.38;;;25.38;;
23718;SDS011;43322;52.230;5.702;2024-03-08T00:06:31;46.78;;;25.50;;
23718;SDS011;43322;52.230;5.702;2024-03-08T00:08:59;41.72;;;25.65;;
23718;SDS011;43322;52.230;5.702;2024-03-08T00:11:26;45.45;;;24.42;;
23718;SDS011;43322;52.230;5.702;2024-03-08T00:13:53;41.47;;;24.58;;
23718;SDS011;43322;52.230;5.702;2024-03-08T00:16:19;44.53;;;24.98;;
23718;SDS011;43322;52.230;5.702;2024-03-08T00:18:48;48.13;;;26.15;;
23718;SDS011;43322;52.230;5.702;2024-03-08T00:21:15;42.20;;;25.17;;
23718;SDS011;43322;52.230;5.702;2024-03-08T00:23:42;47.28;;;25.38;;
23718;SDS011;43322;52.230;5.702;2024-03-08T00:26:10;48.85;;;25.00;;
23718;SDS011;43322;52.230;5.702;2024-03-08T00:28:37;43.58;;;24.55;;
23718;SDS011;43322;52.230;5.702;2024-03-08T00:31:04;41.80;;;24.95;;
23718;SDS011;43322;52.230;5.702;2024-03-08T00:33:32;45.88;;;25.70;;
23718;SDS011;43322;52.230;5.702;2024-03-08T00:35:59;42.25;;;24.95;;
23718;SDS011;43322;52.230;5.702;2024-03-08T00:38:25;47.08;;;26.17;;
23718;SDS011;43322;52.230;5.702;2024-03-08T00:40:52;47.00;;;25.83;;
23718;SDS011;43322;52.230;5.702;2024-03-08T00:43:23;45.35;;;25.52;;
23718;SDS011;43322;52.230;5.702;2024-03-08T00:45:50;50.30;;;25.63;;
23718;SDS011;43322;52.230;5.702;2024-03-08T00:48:16;48.17;;;25.58;;
23718;SDS011;43322;52.230;5.702;2024-03-08T00:50:43;50.20;;;26.55;;
23718;SDS011;43322;52.230;5.702;2024-03-08T00:53:10;45.42;;;26.10;;
23718;SDS011;43322;52.230;5.702;2024-03-08T00:55:37;47.45;;;25.75;;
23718;SDS011;43322;52.230;5.702;2024-03-08T00:58:04;41.80;;;25.15;;
23718;SDS011;43322;52.230;5.702;2024-03-08T01:00:32;52.17;;;26.80;;
23718;SDS011;43322;52.230;5.702;2024-03-08T01:02:59;48.30;;;25.77;;
23718;SDS011;43322;52.230;5.702;2024-03-08T01:05:28;45.65;;;26.20;;
23718;SDS011;43322;52.230;5.702;2024-03-08T01:07:55;49.17;;;26.20;;
23718;SDS011;43322;52.230;5.702;2024-03-08T01:10:22;46.45;;;26.58;;
23718;SDS011;43322;52.230;5.702;2024-03-08T01:12:49;47.72;;;24.98;;
23718;SDS011;43322;52.230;5.702;2024-03-08T01:15:15;47.60;;;27.30;;
23718;SDS011;43322;52.230;5.702;2024-03-08T01:17:44;45.30;;;25.55;;
23718;SDS011;43322;52.230;5.702;2024-03-08T01:20:11;48.03;;;27.05;;
23718;SDS011;43322;52.230;5.702;2024-03-08T01:22:38;44.95;;;25.17;;
23718;SDS011;43322;52.230;5.702;2024-03-08T01:25:05;48.05;;;26.73;;
23718;SDS011;43322;52.230;5.702;2024-03-08T01:27:33;45.70;;;25.50;;
23718;SDS011;43322;52.230;5.702;2024-03-08T01:30:02;46.00;;;26.70;;
23718;SDS011;43322;52.230;5.702;2024-03-08T01:32:29;54.65;;;27.25;;
23718;SDS011;43322;52.230;5.702;2024-03-08T01:34:57;47.58;;;26.92;;
23718;SDS011;43322;52.230;5.702;2024-03-08T01:37:24;46.90;;;27.23;;
23718;SDS011;43322;52.230;5.702;2024-03-08T01:39:51;47.50;;;27.17;;
23718;SDS011;43322;52.230;5.702;2024-03-08T01:42:18;53.47;;;27.90;;
23718;SDS011;43322;52.230;5.702;2024-03-08T01:44:45;48.22;;;27.88;;
23718;SDS011;43322;52.230;5.702;2024-03-08T01:47:12;49.85;;;26.90;;
23718;SDS011;43322;52.230;5.702;2024-03-08T01:49:38;46.40;;;26.90;;
23718;SDS011;43322;52.230;5.702;2024-03-08T01:52:07;48.60;;;27.65;;
23718;SDS011;43322;52.230;5.702;2024-03-08T01:54:34;48.35;;;28.00;;
23718;SDS011;43322;52.230;5.702;2024-03-08T01:57:01;46.08;;;27.02;;
23718;SDS011;43322;52.230;5.702;2024-03-08T01:59:28;47.85;;;27.90;;
23718;SDS011;43322;52.230;5.702;2024-03-08T02:01:55;46.42;;;27.13;;
23718;SDS011;43322;52.230;5.702;2024-03-08T02:04:28;50.22;;;28.10;;
23718;SDS011;43322;52.230;5.702;2024-03-08T02:06:55;53.08;;;28.02;;
23718;SDS011;43322;52.230;5.702;2024-03-08T02:09:24;53.17;;;27.05;;
23718;SDS011;43322;52.230;5.702;2024-03-08T02:11:51;44.80;;;26.00;;
23718;SDS011;43322;52.230;5.702;2024-03-08T02:14:19;46.17;;;26.13;;
23718;SDS011;43322;52.230;5.702;2024-03-08T02:16:46;46.20;;;27.20;;
23718;SDS011;43322;52.230;5.702;2024-03-08T02:19:12;48.45;;;28.50;;
23718;SDS011;43322;52.230;5.702;2024-03-08T02:21:40;44.40;;;26.30;;
23718;SDS011;43322;52.230;5.702;2024-03-08T02:24:07;52.70;;;28.70;;
23718;SDS011;43322;52.230;5.702;2024-03-08T02:26:34;45.55;;;27.27;;
23718;SDS011;43322;52.230;5.702;2024-03-08T02:29:01;50.08;;;26.25;;
23718;SDS011;43322;52.230;5.702;2024-03-08T02:31:28;42.30;;;25.67;;
23718;SDS011;43322;52.230;5.702;2024-03-08T02:33:54;45.95;;;27.70;;
23718;SDS011;43322;52.230;5.702;2024-03-08T02:36:21;49.08;;;27.13;;
23718;SDS011;43322;52.230;5.702;2024-03-08T02:38:49;47.20;;;27.60;;
23718;SDS011;43322;52.230;5.702;2024-03-08T02:41:16;47.78;;;27.70;;
23718;SDS011;43322;52.230;5.702;2024-03-08T02:43:43;48.53;;;28.77;;
23718;SDS011;43322;52.230;5.702;2024-03-08T02:46:10;52.15;;;27.98;;
23718;SDS011;43322;52.230;5.702;2024-03-08T02:48:37;46.80;;;27.58;;
23718;SDS011;43322;52.230;5.702;2024-03-08T02:51:05;49.40;;;28.55;;
23718;SDS011;43322;52.230;5.702;2024-03-08T02:53:32;46.05;;;28.00;;
23718;SDS011;43322;52.230;5.702;2024-03-08T02:56:01;51.17;;;29.55;;
23718;SDS011;43322;52.230;5.702;2024-03-08T02:58:28;52.50;;;29.70;;
23718;SDS011;43322;52.230;5.702;2024-03-08T03:00:55;49.70;;;28.85;;
23718;SDS011;43322;52.230;5.702;2024-03-08T03:03:22;55.00;;;30.23;;
23718;SDS011;43322;52.230;5.702;2024-03-08T03:05:49;50.97;;;29.38;;
23718;SDS011;43322;52.230;5.702;2024-03-08T03:08:16;52.10;;;29.63;;
23718;SDS011;43322;52.230;5.702;2024-03-08T03:10:42;48.80;;;28.67;;
23718;SDS011;43322;52.230;5.702;2024-03-08T03:13:11;48.38;;;28.85;;
23718;SDS011;43322;52.230;5.702;2024-03-08T03:15:39;48.55;;;28.52;;
23718;SDS011;43322;52.230;5.702;2024-03-08T03:18:07;53.47;;;30.52;;
23718;SDS011;43322;52.230;5.702;2024-03-08T03:20:33;55.00;;;30.27;;
23718;SDS011;43322;52.230;5.702;2024-03-08T03:23:05;56.40;;;29.70;;
23718;SDS011;43322;52.230;5.702;2024-03-08T03:25:33;51.47;;;29.98;;
23718;SDS011;43322;52.230;5.702;2024-03-08T03:28:01;50.97;;;29.95;;
23718;SDS011;43322;52.230;5.702;2024-03-08T03:30:29;52.42;;;29.38;;
23718;SDS011;43322;52.230;5.702;2024-03-08T03:32:58;51.58;;;30.05;;
23718;SDS011;43322;52.230;5.702;2024-03-08T03:35:25;50.67;;;29.10;;
23718;SDS011;43322;52.230;5.702;2024-03-08T03:37:52;51.13;;;30.38;;
23718;SDS011;43322;52.230;5.702;2024-03-08T03:40:31;51.70;;;29.08;;
23718;SDS011;43322;52.230;5.702;2024-03-08T03:42:58;53.88;;;30.92;;
23718;SDS011;43322;52.230;5.702;2024-03-08T03:45:25;48.38;;;29.50;;
23718;SDS011;43322;52.230;5.702;2024-03-08T03:47:53;53.55;;;29.58;;
23718;SDS011;43322;52.230;5.702;2024-03-08T03:50:20;48.83;;;30.45;;
23718;SDS011;43322;52.230;5.702;2024-03-08T03:52:48;52.80;;;29.92;;
23718;SDS011;43322;52.230;5.702;2024-03-08T03:55:15;52.67;;;30.15;;
23718;SDS011;43322;52.230;5.702;2024-03-08T03:57:43;58.47;;;30.25;;
23718;SDS011;43322;52.230;5.702;2024-03-08T04:00:11;48.40;;;29.98;;
23718;SDS011;43322;52.230;5.702;2024-03-08T04:02:38;51.92;;;30.58;;
23718;SDS011;43322;52.230;5.702;2024-03-08T04:05:08;50.13;;;30.83;;
23718;SDS011;43322;52.230;5.702;2024-03-08T04:07:36;49.72;;;29.83;;
23718;SDS011;43322;52.230;5.702;2024-03-08T04:10:04;47.40;;;28.52;;
23718;SDS011;43322;52.230;5.702;2024-03-08T04:12:33;48.08;;;29.90;;
23718;SDS011;43322;52.230;5.702;2024-03-08T04:15:00;53.92;;;30.55;;
23718;SDS011;43322;52.230;5.702;2024-03-08T04:17:27;47.05;;;30.27;;
23718;SDS011;43322;52.230;5.702;2024-03-08T04:19:54;48.25;;;29.58;;
23718;SDS011;43322;52.230;5.702;2024-03-08T04:22:23;51.60;;;30.45;;
23718;SDS011;43322;52.230;5.702;2024-03-08T04:24:50;49.08;;;29.60;;
23718;SDS011;43322;52.230;5.702;2024-03-08T04:27:17;44.70;;;28.42;;
23718;SDS011;43322;52.230;5.702;2024-03-08T04:29:44;51.25;;;30.45;;
23718;SDS011;43322;52.230;5.702;2024-03-08T04:32:11;47.60;;;29.80;;
23718;SDS011;43322;52.230;5.702;2024-03-08T04:34:38;51.50;;;31.05;;
23718;SDS011;43322;52.230;5.702;2024-03-08T04:37:05;48.28;;;29.95;;
23718;SDS011;43322;52.230;5.702;2024-03-08T04:39:33;47.47;;;30.15;;
23718;SDS011;43322;52.230;5.702;2024-03-08T04:42:01;51.65;;;29.63;;
23718;SDS011;43322;52.230;5.702;2024-03-08T04:44:29;44.15;;;28.70;;
23718;SDS011;43322;52.230;5.702;2024-03-08T04:46:56;48.20;;;29.65;;
23718;SDS011;43322;52.230;5.702;2024-03-08T04:49:23;54.08;;;29.95;;
23718;SDS011;43322;52.230;5.702;2024-03-08T04:51:50;47.72;;;28.98;;
23718;SDS011;43322;52.230;5.702;2024-03-08T04:54:17;49.50;;;29.70;;
23718;SDS011;43322;52.230;5.702;2024-03-08T04:56:46;49.15;;;30.50;;
23718;SDS011;43322;52.230;5.702;2024-03-08T04:59:12;48.25;;;30.00;;
23718;SDS011;43322;52.230;5.702;2024-03-08T05:01:39;46.40;;;29.08;;
23718;SDS011;43322;52.230;5.702;2024-03-08T05:04:06;53.15;;;30.02;;
23718;SDS011;43322;52.230;5.702;2024-03-08T05:06:33;51.53;;;28.67;;
23718;SDS011;43322;52.230;5.702;2024-03-08T05:09:01;49.22;;;30.23;;
23718;SDS011;43322;52.230;5.702;2024-03-08T05:11:38;50.22;;;30.55;;
23718;SDS011;43322;52.230;5.702;2024-03-08T05:14:06;51.00;;;30.08;;
23718;SDS011;43322;52.230;5.702;2024-03-08T05:16:33;51.22;;;30.80;;
23718;SDS011;43322;52.230;5.702;2024-03-08T05:19:00;48.47;;;29.83;;
23718;SDS011;43322;52.230;5.702;2024-03-08T05:21:27;49.92;;;31.40;;
23718;SDS011;43322;52.230;5.702;2024-03-08T05:23:55;51.22;;;31.40;;
23718;SDS011;43322;52.230;5.702;2024-03-08T05:26:21;47.58;;;30.80;;
23718;SDS011;43322;52.230;5.702;2024-03-08T05:28:48;48.10;;;29.83;;
23718;SDS011;43322;52.230;5.702;2024-03-08T05:31:19;46.78;;;30.17;;
23718;SDS011;43322;52.230;5.702;2024-03-08T05:33:47;48.53;;;30.60;;
23718;SDS011;43322;52.230;5.702;2024-03-08T05:36:14;48.90;;;30.35;;
23718;SDS011;43322;52.230;5.702;2024-03-08T05:38:41;47.20;;;29.95;;
23718;SDS011;43322;52.230;5.702;2024-03-08T05:41:08;52.28;;;31.10;;
23718;SDS011;43322;52.230;5.702;2024-03-08T05:43:36;48.13;;;30.45;;
23718;SDS011;43322;52.230;5.702;2024-03-08T05:46:03;46.28;;;30.50;;
23718;SDS011;43322;52.230;5.702;2024-03-08T05:48:32;51.28;;;30.23;;
23718;SDS011;43322;52.230;5.702;2024-03-08T05:50:59;50.92;;;30.90;;
23718;SDS011;43322;52.230;5.702;2024-03-08T05:53:26;49.88;;;30.63;;
23718;SDS011;43322;52.230;5.702;2024-03-08T05:55:56;49.10;;;30.92;;
23718;SDS011;43322;52.230;5.702;2024-03-08T05:58:23;49.30;;;30.92;;
23718;SDS011;43322;52.230;5.702;2024-03-08T06:00:50;47.60;;;30.23;;
23718;SDS011;43322;52.230;5.702;2024-03-08T06:03:17;49.03;;;30.55;;
23718;SDS011;43322;52.230;5.702;2024-03-08T06:05:47;47.67;;;31.00;;
23718;SDS011;43322;52.230;5.702;2024-03-08T06:08:15;48.85;;;30.02;;
23718;SDS011;43322;52.230;5.702;2024-03-08T06:10:41;51.58;;;31.83;;
23718;SDS011;43322;52.230;5.702;2024-03-08T06:13:09;51.90;;;30.38;;
23718;SDS011;43322;52.230;5.702;2024-03-08T06:15:37;54.88;;;32.15;;
23718;SDS011;43322;52.230;5.702;2024-03-08T06:18:04;46.95;;;30.33;;
23718;SDS011;43322;52.230;5.702;2024-03-08T06:20:31;52.10;;;31.52;;
23718;SDS011;43322;52.230;5.702;2024-03-08T06:22:59;52.10;;;31.70;;
23718;SDS011;43322;52.230;5.702;2024-03-08T06:25:26;53.83;;;32.13;;
23718;SDS011;43322;52.230;5.702;2024-03-08T06:27:53;54.33;;;31.45;;
23718;SDS011;43322;52.230;5.702;2024-03-08T06:30:20;48.50;;;31.65;;
23718;SDS011;43322;52.230;5.702;2024-03-08T06:32:47;51.17;;;30.83;;
23718;SDS011;43322;52.230;5.702;2024-03-08T06:35:14;56.72;;;32.97;;
23718;SDS011;43322;52.230;5.702;2024-03-08T06:37:41;56.83;;;32.50;;
23718;SDS011;43322;52.230;5.702;2024-03-08T06:40:11;53.10;;;32.90;;
23718;SDS011;43322;52.230;5.702;2024-03-08T06:42:39;52.83;;;32.92;;
23718;SDS011;43322;52.230;5.702;2024-03-08T06:45:06;49.80;;;32.55;;
23718;SDS011;43322;52.230;5.702;2024-03-08T06:47:35;53.50;;;31.70;;
23718;SDS011;43322;52.230;5.702;2024-03-08T06:50:02;56.17;;;32.67;;
23718;SDS011;43322;52.230;5.702;2024-03-08T06:52:30;57.88;;;32.88;;
23718;SDS011;43322;52.230;5.702;2024-03-08T06:54:58;59.25;;;32.78;;
23718;SDS011;43322;52.230;5.702;2024-03-08T06:57:28;53.40;;;32.72;;
23718;SDS011;43322;52.230;5.702;2024-03-08T06:59:54;51.63;;;33.33;;
23718;SDS011;43322;52.230;5.702;2024-03-08T07:02:22;51.88;;;32.83;;
23718;SDS011;43322;52.230;5.702;2024-03-08T07:04:50;59.42;;;34.58;;
23718;SDS011;43322;52.230;5.702;2024-03-08T07:07:18;55.90;;;33.65;;
23718;SDS011;43322;52.230;5.702;2024-03-08T07:09:46;59.53;;;35.35;;
23718;SDS011;43322;52.230;5.702;2024-03-08T07:12:14;57.28;;;34.83;;
23718;SDS011;43322;52.230;5.702;2024-03-08T07:14:43;52.78;;;31.90;;
23718;SDS011;43322;52.230;5.702;2024-03-08T07:17:10;52.22;;;31.17;;
23718;SDS011;43322;52.230;5.702;2024-03-08T07:19:37;42.92;;;27.40;;
23718;SDS011;43322;52.230;5.702;2024-03-08T07:22:04;40.90;;;26.70;;
23718;SDS011;43322;52.230;5.702;2024-03-08T07:24:33;41.25;;;27.40;;
23718;SDS011;43322;52.230;5.702;2024-03-08T07:27:15;38.45;;;26.02;;
23718;SDS011;43322;52.230;5.702;2024-03-08T07:29:44;44.58;;;28.23;;
23718;SDS011;43322;52.230;5.702;2024-03-08T07:32:12;41.38;;;27.17;;
23718;SDS011;43322;52.230;5.702;2024-03-08T07:34:46;47.33;;;27.65;;
23718;SDS011;43322;52.230;5.702;2024-03-08T07:37:14;38.35;;;26.05;;
23718;SDS011;43322;52.230;5.702;2024-03-08T07:39:41;39.85;;;26.00;;
23718;SDS011;43322;52.230;5.702;2024-03-08T07:42:08;40.42;;;27.52;;
23718;SDS011;43322;52.230;5.702;2024-03-08T07:44:36;41.67;;;27.35;;
23718;SDS011;43322;52.230;5.702;2024-03-08T07:47:05;39.80;;;28.15;;
23718;SDS011;43322;52.230;5.702;2024-03-08T07:49:34;46.75;;;28.40;;
23718;SDS011;43322;52.230;5.702;2024-03-08T07:52:02;46.20;;;28.25;;
23718;SDS011;43322;52.230;5.702;2024-03-08T07:54:32;42.13;;;28.27;;
23718;SDS011;43322;52.230;5.702;2024-03-08T07:56:59;43.25;;;29.17;;
23718;SDS011;43322;52.230;5.702;2024-03-08T07:59:27;40.10;;;26.27;;
23718;SDS011;43322;52.230;5.702;2024-03-08T08:01:55;41.13;;;27.27;;
23718;SDS011;43322;52.230;5.702;2024-03-08T08:04:23;43.83;;;28.42;;
23718;SDS011;43322;52.230;5.702;2024-03-08T08:06:51;38.85;;;27.95;;
23718;SDS011;43322;52.230;5.702;2024-03-08T08:09:19;38.05;;;26.52;;
23718;SDS011;43322;52.230;5.702;2024-03-08T08:11:53;38.95;;;25.95;;
23718;SDS011;43322;52.230;5.702;2024-03-08T08:14:20;35.22;;;25.55;;
23718;SDS011;43322;52.230;5.702;2024-03-08T08:16:47;39.92;;;26.60;;
23718;SDS011;43322;52.230;5.702;2024-03-08T08:19:16;42.40;;;27.13;;
23718;SDS011;43322;52.230;5.702;2024-03-08T08:21:44;39.72;;;26.80;;
23718;SDS011;43322;52.230;5.702;2024-03-08T08:24:12;42.75;;;26.77;;
23718;SDS011;43322;52.230;5.702;2024-03-08T08:26:39;39.45;;;26.42;;
23718;SDS011;43322;52.230;5.702;2024-03-08T08:29:05;41.50;;;26.65;;
23718;SDS011;43322;52.230;5.702;2024-03-08T08:31:32;37.65;;;26.55;;
23718;SDS011;43322;52.230;5.702;2024-03-08T08:33:59;37.53;;;26.25;;
23718;SDS011;43322;52.230;5.702;2024-03-08T08:36:28;38.97;;;27.38;;
23718;SDS011;43322;52.230;5.702;2024-03-08T08:38:57;38.42;;;25.55;;
23718;SDS011;43322;52.230;5.702;2024-03-08T08:41:24;37.00;;;26.10;;
23718;SDS011;43322;52.230;5.702;2024-03-08T08:43:52;42.72;;;26.40;;
23718;SDS011;43322;52.230;5.702;2024-03-08T08:46:19;37.78;;;25.88;;
23718;SDS011;43322;52.230;5.702;2024-03-08T08:48:46;38.15;;;25.85;;
23718;SDS011;43322;52.230;5.702;2024-03-08T08:51:13;37.40;;;25.65;;
23718;SDS011;43322;52.230;5.702;2024-03-08T08:53:40;37.85;;;25.95;;
23718;SDS011;43322;52.230;5.702;2024-03-08T08:56:11;38.72;;;26.08;;
23718;SDS011;43322;52.230;5.702;2024-03-08T08:58:39;36.10;;;25.80;;
23718;SDS011;43322;52.230;5.702;2024-03-08T09:01:07;38.92;;;25.85;;
23718;SDS011;43322;52.230;5.702;2024-03-08T09:03:35;35.30;;;25.33;;
23718;SDS011;43322;52.230;5.702;2024-03-08T09:06:02;35.22;;;25.90;;
23718;SDS011;43322;52.230;5.702;2024-03-08T09:08:29;37.75;;;25.98;;
23718;SDS011;43322;52.230;5.702;2024-03-08T09:10:56;35.17;;;24.90;;
23718;SDS011;43322;52.230;5.702;2024-03-08T09:13:26;34.45;;;25.83;;
23718;SDS011;43322;52.230;5.702;2024-03-08T09:15:52;36.53;;;25.00;;
23718;SDS011;43322;52.230;5.702;2024-03-08T09:18:19;35.22;;;25.20;;
23718;SDS011;43322;52.230;5.702;2024-03-08T09:20:46;37.13;;;26.20;;
23718;SDS011;43322;52.230;5.702;2024-03-08T09:23:13;37.17;;;25.20;;
23718;SDS011;43322;52.230;5.702;2024-03-08T09:25:41;35.13;;;25.02;;
23718;SDS011;43322;52.230;5.702;2024-03-08T09:28:08;37.15;;;25.58;;
23718;SDS011;43322;52.230;5.702;2024-03-08T09:30:38;38.90;;;26.65;;
23718;SDS011;43322;52.230;5.702;2024-03-08T09:33:05;36.88;;;25.40;;
23718;SDS011;43322;52.230;5.702;2024-03-08T09:35:32;31.02;;;23.48;;
23718;SDS011;43322;52.230;5.702;2024-03-08T09:37:59;34.78;;;25.77;;
23718;SDS011;43322;52.230;5.702;2024-03-08T09:40:26;38.65;;;26.90;;
23718;SDS011;43322;52.230;5.702;2024-03-08T09:42:53;40.88;;;27.40;;
23718;SDS011;43322;52.230;5.702;2024-03-08T09:45:20;44.78;;;26.48;;
23718;SDS011;43322;52.230;5.702;2024-03-08T09:47:50;36.25;;;26.48;;
23718;SDS011;43322;52.230;5.702;2024-03-08T09:50:18;35.88;;;25.85;;
23718;SDS011;43322;52.230;5.702;2024-03-08T09:52:46;35.67;;;25.17;;
23718;SDS011;43322;52.230;5.702;2024-03-08T09:55:14;32.25;;;24.65;;
23718;SDS011;43322;52.230;5.702;2024-03-08T09:57:43;34.50;;;23.75;;
23718;SDS011;43322;52.230;5.702;2024-03-08T10:00:32;33.28;;;23.63;;
23718;SDS011;43322;52.230;5.702;2024-03-08T10:03:01;34.30;;;23.77;;
23718;SDS011;43322;52.230;5.702;2024-03-08T10:05:30;37.40;;;25.88;;
23718;SDS011;43322;52.230;5.702;2024-03-08T10:07:58;35.47;;;24.30;;
23718;SDS011;43322;52.230;5.702;2024-03-08T10:10:25;36.72;;;23.42;;
23718;SDS011;43322;52.230;5.702;2024-03-08T10:12:52;34.78;;;23.73;;
23718;SDS011;43322;52.230;5.702;2024-03-08T10:15:19;30.85;;;22.65;;
23718;SDS011;43322;52.230;5.702;2024-03-08T10:17:46;31.58;;;22.60;;
23718;SDS011;43322;52.230;5.702;2024-03-08T10:20:15;32.38;;;22.90;;
23718;SDS011;43322;52.230;5.702;2024-03-08T10:22:43;30.88;;;23.27;;
23718;SDS011;43322;52.230;5.702;2024-03-08T10:25:10;26.75;;;21.17;;
23718;SDS011;43322;52.230;5.702;2024-03-08T10:27:38;25.70;;;20.70;;
23718;SDS011;43322;52.230;5.702;2024-03-08T10:30:06;28.65;;;22.75;;
23718;SDS011;43322;52.230;5.702;2024-03-08T10:32:37;32.80;;;22.98;;
23718;SDS011;43322;52.230;5.702;2024-03-08T10:35:05;30.08;;;22.95;;
23718;SDS011;43322;52.230;5.702;2024-03-08T10:37:34;33.47;;;21.58;;
23718;SDS011;43322;52.230;5.702;2024-03-08T10:40:09;26.83;;;20.92;;
23718;SDS011;43322;52.230;5.702;2024-03-08T10:42:52;27.73;;;21.35;;
23718;SDS011;43322;52.230;5.702;2024-03-08T10:45:23;30.10;;;21.88;;
23718;SDS011;43322;52.230;5.702;2024-03-08T10:48:03;28.88;;;21.83;;
23718;SDS011;43322;52.230;5.702;2024-03-08T10:50:36;29.02;;;22.13;;
23718;SDS011;43322;52.230;5.702;2024-03-08T10:53:06;29.77;;;22.48;;
23718;SDS011;43322;52.230;5.702;2024-03-08T10:55:34;32.45;;;21.67;;
23718;SDS011;43322;52.230;5.702;2024-03-08T10:58:06;31.70;;;21.92;;
23718;SDS011;43322;52.230;5.702;2024-03-08T11:00:33;26.67;;;21.30;;
23718;SDS011;43322;52.230;5.702;2024-03-08T11:03:00;27.95;;;21.15;;
23718;SDS011;43322;52.230;5.702;2024-03-08T11:05:31;28.95;;;21.05;;
23718;SDS011;43322;52.230;5.702;2024-03-08T11:08:03;25.60;;;20.13;;
23718;SDS011;43322;52.230;5.702;2024-03-08T11:10:46;30.95;;;21.35;;
23718;SDS011;43322;52.230;5.702;2024-03-08T11:16:01;24.48;;;19.85;;
23718;SDS011;43322;52.230;5.702;2024-03-08T11:18:31;25.38;;;19.60;;
23718;SDS011;43322;52.230;5.702;2024-03-08T11:21:00;27.17;;;20.20;;
23718;SDS011;43322;52.230;5.702;2024-03-08T11:23:31;23.27;;;19.02;;
23718;SDS011;43322;52.230;5.702;2024-03-08T11:25:58;25.25;;;18.73;;
23718;SDS011;43322;52.230;5.702;2024-03-08T11:28:25;22.30;;;18.38;;
23718;SDS011;43322;52.230;5.702;2024-03-08T11:33:48;24.00;;;18.17;;
23718;SDS011;43322;52.230;5.702;2024-03-08T11:36:20;25.00;;;17.92;;
23718;SDS011;43322;52.230;5.702;2024-03-08T11:38:49;20.83;;;17.95;;
23718;SDS011;43322;52.230;5.702;2024-03-08T11:41:18;25.05;;;18.63;;
23718;SDS011;43322;52.230;5.702;2024-03-08T11:43:46;23.73;;;18.42;;
23718;SDS011;43322;52.230;5.702;2024-03-08T11:46:13;22.65;;;17.65;;
23718;SDS011;43322;52.230;5.702;2024-03-08T11:48:41;23.08;;;18.83;;
23718;SDS011;43322;52.230;5.702;2024-03-08T11:51:09;22.02;;;17.98;;
23718;SDS011;43322;52.230;5.702;2024-03-08T11:53:38;21.85;;;17.27;;
23718;SDS011;43322;52.230;5.702;2024-03-08T11:56:07;21.33;;;17.58;;
23718;SDS011;43322;52.230;5.702;2024-03-08T11:58:36;21.38;;;17.23;;
23718;SDS011;43322;52.230;5.702;2024-03-08T12:01:03;21.95;;;17.98;;
23718;SDS011;43322;52.230;5.702;2024-03-08T12:03:32;22.85;;;17.45;;
23718;SDS011;43322;52.230;5.702;2024-03-08T12:05:59;21.17;;;17.00;;
23718;SDS011;43322;52.230;5.702;2024-03-08T12:08:26;18.10;;;15.82;;
23718;SDS011;43322;52.230;5.702;2024-03-08T12:10:54;19.17;;;15.30;;
23718;SDS011;43322;52.230;5.702;2024-03-08T12:13:26;20.58;;;16.73;;
23718;SDS011;43322;52.230;5.702;2024-03-08T12:15:55;21.67;;;16.70;;
23718;SDS011;43322;52.230;5.702;2024-03-08T12:18:23;22.17;;;16.92;;
23718;SDS011;43322;52.230;5.702;2024-03-08T12:20:50;18.80;;;16.33;;
23718;SDS011;43322;52.230;5.702;2024-03-08T12:23:17;20.75;;;16.63;;
23718;SDS011;43322;52.230;5.702;2024-03-08T12:25:44;19.00;;;16.67;;
23718;SDS011;43322;52.230;5.702;2024-03-08T12:28:13;18.33;;;15.88;;
23718;SDS011;43322;52.230;5.702;2024-03-08T12:30:46;18.95;;;16.08;;
23718;SDS011;43322;52.230;5.702;2024-03-08T12:33:14;16.50;;;14.80;;
23718;SDS011;43322;52.230;5.702;2024-03-08T12:35:49;20.27;;;15.35;;
23718;SDS011;43322;52.230;5.702;2024-03-08T12:38:20;17.67;;;15.77;;
23718;SDS011;43322;52.230;5.702;2024-03-08T12:40:50;22.65;;;15.98;;
23718;SDS011;43322;52.230;5.702;2024-03-08T12:43:18;21.25;;;15.65;;
23718;SDS011;43322;52.230;5.702;2024-03-08T12:45:46;17.30;;;15.38;;
23718;SDS011;43322;52.230;5.702;2024-03-08T12:48:13;20.25;;;16.38;;
23718;SDS011;43322;52.230;5.702;2024-03-08T12:50:41;19.17;;;15.75;;
23718;SDS011;43322;52.230;5.702;2024-03-08T12:53:10;18.25;;;15.30;;
23718;SDS011;43322;52.230;5.702;2024-03-08T12:55:38;19.83;;;15.57;;
23718;SDS011;43322;52.230;5.702;2024-03-08T12:58:06;21.55;;;16.52;;
23718;SDS011;43322;52.230;5.702;2024-03-08T13:00:33;19.98;;;16.35;;
23718;SDS011;43322;52.230;5.702;2024-03-08T13:03:02;19.10;;;16.23;;
23718;SDS011;43322;52.230;5.702;2024-03-08T13:05:31;19.50;;;16.10;;
23718;SDS011;43322;52.230;5.702;2024-03-08T13:07:58;20.60;;;16.27;;
23718;SDS011;43322;52.230;5.702;2024-03-08T13:10:25;19.67;;;16.27;;
23718;SDS011;43322;52.230;5.702;2024-03-08T13:12:52;18.65;;;16.33;;
23718;SDS011;43322;52.230;5.702;2024-03-08T13:15:19;20.75;;;16.35;;
23718;SDS011;43322;52.230;5.702;2024-03-08T13:17:46;18.88;;;16.88;;
23718;SDS011;43322;52.230;5.702;2024-03-08T13:20:15;20.20;;;16.70;;
23718;SDS011;43322;52.230;5.702;2024-03-08T13:22:44;18.85;;;16.83;;
23718;SDS011;43322;52.230;5.702;2024-03-08T13:25:12;20.17;;;16.63;;
23718;SDS011;43322;52.230;5.702;2024-03-08T13:27:39;20.40;;;17.02;;
23718;SDS011;43322;52.230;5.702;2024-03-08T13:30:07;21.08;;;16.65;;
23718;SDS011;43322;52.230;5.702;2024-03-08T13:32:38;24.25;;;17.90;;
23718;SDS011;43322;52.230;5.702;2024-03-08T13:35:05;21.73;;;17.95;;
23718;SDS011;43322;52.230;5.702;2024-03-08T13:37:39;22.38;;;17.10;;
23718;SDS011;43322;52.230;5.702;2024-03-08T13:40:06;19.20;;;16.50;;
23718;SDS011;43322;52.230;5.702;2024-03-08T13:42:36;26.73;;;17.10;;
23718;SDS011;43322;52.230;5.702;2024-03-08T13:45:03;20.98;;;17.30;;
23718;SDS011;43322;52.230;5.702;2024-03-08T13:47:32;21.42;;;17.55;;
23718;SDS011;43322;52.230;5.702;2024-03-08T13:49:59;19.65;;;17.52;;
23718;SDS011;43322;52.230;5.702;2024-03-08T13:52:26;21.08;;;18.23;;
23718;SDS011;43322;52.230;5.702;2024-03-08T13:54:55;20.27;;;17.65;;
23718;SDS011;43322;52.230;5.702;2024-03-08T13:57:22;25.45;;;17.95;;
23718;SDS011;43322;52.230;5.702;2024-03-08T13:59:49;22.25;;;18.25;;
23718;SDS011;43322;52.230;5.702;2024-03-08T14:02:16;21.75;;;17.40;;
23718;SDS011;43322;52.230;5.702;2024-03-08T14:04:43;24.23;;;18.40;;
23718;SDS011;43322;52.230;5.702;2024-03-08T14:07:10;23.60;;;18.17;;
23718;SDS011;43322;52.230;5.702;2024-03-08T14:09:37;22.98;;;17.90;;
23718;SDS011;43322;52.230;5.702;2024-03-08T14:12:09;23.05;;;17.80;;
23718;SDS011;43322;52.230;5.702;2024-03-08T14:14:36;23.33;;;17.42;;
23718;SDS011;43322;52.230;5.702;2024-03-08T14:17:03;23.80;;;17.73;;
23718;SDS011;43322;52.230;5.702;2024-03-08T14:19:32;23.30;;;18.17;;
23718;SDS011;43322;52.230;5.702;2024-03-08T14:22:00;22.35;;;18.10;;
23718;SDS011;43322;52.230;5.702;2024-03-08T14:24:29;23.85;;;17.88;;
23718;SDS011;43322;52.230;5.702;2024-03-08T14:26:56;21.23;;;17.50;;
23718;SDS011;43322;52.230;5.702;2024-03-08T14:29:25;21.23;;;17.52;;
23718;SDS011;43322;52.230;5.702;2024-03-08T14:31:54;21.67;;;17.65;;